Time;durP1;ratioP1;P1;durP2;ratioP2;P2;SDS_P1;SDS_P2;PMS_P1;PMS_P2;Temp;Humidity;BMP_temperature;BMP_pressure;BME280_temperature;BME280_humidity;BME280_pressure;Samples;Min_cycle;Max_cycle;Signal;HPM_P1;HPM_P2
2023/05/31 00:02:13;;;;;;;;;;;;;;;27.40;23.72;98753.31;5070136;28;20007;-80
2023/05/31 00:04:39;;;;;;;;;;;;;;;27.42;24.01;98747.25;5073422;28;19927;-80
2023/05/31 00:07:05;;;;;;;;;;;;;;;27.38;23.55;98744.50;5072944;28;20372;-80
2023/05/31 00:09:32;;;;;;;;;;;;;;;27.40;23.89;98749.69;5073565;28;19923;-80
2023/05/31 00:11:58;;;;;;;;;;;;;;;27.42;24.18;98750.06;5071576;28;19920;-79
2023/05/31 00:14:24;;;;;;;;;;;;;;;27.06;24.43;98752.13;5058790;28;19917;-80
2023/05/31 00:16:50;;;;;;;;;;;;;;;27.03;24.19;98742.50;5053046;28;19921;-80
2023/05/31 00:19:16;;;;;;;;;;;;;;;26.87;24.01;98755.78;5053268;28;19924;-80
2023/05/31 00:21:43;;;;;;;;;;;;;;;27.01;24.22;98742.16;5053022;28;19944;-80
2023/05/31 00:24:09;;;;;;;;;;;;;;;27.14;24.18;98745.09;5068656;28;19920;-79
2023/05/31 00:26:35;;;;;;;;;;;;;;;27.13;23.93;98744.28;5073701;28;19921;-79
2023/05/31 00:29:01;;;;;;;;;;;;;;;27.18;24.03;98742.97;5073233;28;19917;-80
2023/05/31 00:31:27;;;;;;;;;;;;;;;27.01;24.07;98742.16;5070637;28;20008;-80
2023/05/31 00:33:53;;;;;;;;;;;;;;;27.04;23.94;98740.50;5072826;28;20376;-79
2023/05/31 00:36:19;;;;;;;;;;;;;;;26.92;24.08;98741.16;5054085;28;19948;-79
2023/05/31 00:38:45;;;;;;;;;;;;;;;26.95;24.48;98734.66;5070736;28;19923;-79
2023/05/31 00:41:11;;;;;;;;;;;;;;;27.03;23.99;98738.88;5072893;28;19995;-79
2023/05/31 00:43:37;;;;;;;;;;;;;;;27.18;23.87;98737.34;5073489;28;19935;-79
2023/05/31 00:46:04;;;;;;;;;;;;;;;27.16;23.97;98734.16;5073276;28;20018;-80
2023/05/31 00:48:30;;;;;;;;;;;;;;;27.22;24.14;98743.66;5070073;28;19921;-80
2023/05/31 00:50:56;;;;;;;;;;;;;;;26.99;24.30;98736.16;5060634;28;19921;-80
2023/05/31 00:53:22;;;;;;;;;;;;;;;27.11;24.13;98740.31;5070280;28;19956;-80
2023/05/31 00:55:50;;;;;;;;;;;;;;;27.13;23.85;98747.13;5072364;28;20027;-79
2023/05/31 00:58:16;;;;;;;;;;;;;;;27.24;23.83;98736.38;5068245;28;20375;-79
2023/05/31 01:00:42;;;;;;;;;;;;;;;27.17;23.66;98741.38;5071082;28;19966;-79
2023/05/31 01:03:08;;;;;;;;;;;;;;;27.03;24.16;98747.34;5059569;28;19996;-79
2023/05/31 01:05:35;;;;;;;;;;;;;;;26.66;24.03;98743.72;5062346;28;19921;-80
2023/05/31 01:08:02;;;;;;;;;;;;;;;26.58;24.32;98747.91;5061234;28;19924;-79
2023/05/31 01:10:28;;;;;;;;;;;;;;;26.73;23.77;98751.22;5056222;28;19923;-80
2023/05/31 01:12:55;;;;;;;;;;;;;;;26.94;23.95;98744.34;5056388;28;19923;-79
2023/05/31 01:15:31;;;;;;;;;;;;;;;26.71;23.70;98753.69;5058840;28;19925;-79
2023/05/31 01:18:09;;;;;;;;;;;;;;;26.80;23.67;98755.94;5070715;28;19962;-79
2023/05/31 01:20:37;;;;;;;;;;;;;;;26.59;24.14;98757.97;5076113;28;19923;-80
2023/05/31 01:23:18;;;;;;;;;;;;;;;26.53;24.69;98759.72;5065103;28;20000;-80
2023/05/31 01:26:04;;;;;;;;;;;;;;;26.18;24.51;98765.28;5056039;28;19923;-80
2023/05/31 01:28:32;;;;;;;;;;;;;;;26.43;24.33;98762.75;5056125;28;19951;-80
2023/05/31 01:31:01;;;;;;;;;;;;;;;26.20;24.93;98749.53;5061859;28;19958;-79
2023/05/31 01:33:28;;;;;;;;;;;;;;;26.37;24.23;98754.00;5076432;28;19978;-79
2023/05/31 01:35:54;;;;;;;;;;;;;;;26.45;24.68;98754.66;5074447;28;19912;-79
2023/05/31 01:38:20;;;;;;;;;;;;;;;26.45;24.98;98761.09;5075685;28;19943;-80
2023/05/31 01:40:46;;;;;;;;;;;;;;;26.63;23.99;98761.50;5058006;28;19920;-79
2023/05/31 01:43:12;;;;;;;;;;;;;;;26.66;23.69;98765.47;5055280;28;19917;-79
2023/05/31 01:45:39;;;;;;;;;;;;;;;26.71;23.94;98759.31;5055530;28;19917;-80
2023/05/31 01:48:06;;;;;;;;;;;;;;;26.83;24.48;98760.72;5062173;28;19916;-80
2023/05/31 01:50:33;;;;;;;;;;;;;;;26.50;24.15;98763.41;5075937;28;19920;-80
2023/05/31 01:52:59;;;;;;;;;;;;;;;26.23;24.49;98768.38;5075647;28;19920;-80
2023/05/31 01:55:25;;;;;;;;;;;;;;;26.23;24.54;98774.03;5074021;28;20241;-79
2023/05/31 01:57:51;;;;;;;;;;;;;;;26.43;24.13;98769.19;5064716;28;19916;-79
2023/05/31 02:00:18;;;;;;;;;;;;;;;26.53;23.93;98765.34;5070582;28;20007;-79
2023/05/31 02:02:44;;;;;;;;;;;;;;;26.27;23.91;98766.28;5065321;28;19925;-79
2023/05/31 02:05:12;;;;;;;;;;;;;;;25.67;24.61;98778.63;5070638;28;19920;-79
2023/05/31 02:07:40;;;;;;;;;;;;;;;25.92;24.62;98769.75;5071584;28;19927;-79
2023/05/31 02:10:06;;;;;;;;;;;;;;;26.14;24.30;98767.38;5069200;28;20386;-79
2023/05/31 02:12:32;;;;;;;;;;;;;;;25.95;24.57;98766.09;5074308;28;20397;-79
2023/05/31 02:14:59;;;;;;;;;;;;;;;26.09;24.12;98769.41;5061801;28;19920;-80
2023/05/31 02:17:25;;;;;;;;;;;;;;;26.20;24.18;98766.44;5073447;28;20359;-79
2023/05/31 02:19:51;;;;;;;;;;;;;;;26.34;23.77;98760.50;5074334;28;20299;-80
2023/05/31 02:22:18;;;;;;;;;;;;;;;26.41;24.22;98760.38;5072902;28;19920;-79
2023/05/31 02:24:45;;;;;;;;;;;;;;;26.52;24.18;98757.31;5072757;28;19928;-79
2023/05/31 02:27:14;;;;;;;;;;;;;;;26.57;23.81;98766.06;5074446;28;20414;-79
2023/05/31 02:29:40;;;;;;;;;;;;;;;26.62;24.01;98761.94;5074209;28;19943;-80
2023/05/31 02:32:07;;;;;;;;;;;;;;;26.61;23.65;98752.69;5074756;28;19924;-80
2023/05/31 02:34:33;;;;;;;;;;;;;;;26.54;23.65;98760.50;5070708;28;19920;-79
2023/05/31 02:37:02;;;;;;;;;;;;;;;26.39;23.70;98762.84;5070994;28;19924;-79
2023/05/31 02:39:29;;;;;;;;;;;;;;;25.99;24.12;98761.19;5072360;28;19973;-79
2023/05/31 02:41:55;;;;;;;;;;;;;;;26.13;23.79;98769.38;5073402;28;20551;-80
2023/05/31 02:44:21;;;;;;;;;;;;;;;26.20;23.53;98763.63;5073225;28;19925;-79
2023/05/31 02:46:47;;;;;;;;;;;;;;;26.03;23.42;98764.72;5072730;28;19928;-79
2023/05/31 02:49:13;;;;;;;;;;;;;;;25.74;23.78;98769.28;5069905;28;20291;-79
2023/05/31 02:51:39;;;;;;;;;;;;;;;25.74;24.01;98775.69;5070671;28;19924;-79
2023/05/31 02:54:05;;;;;;;;;;;;;;;26.02;23.75;98771.59;5070808;28;19920;-79
2023/05/31 02:56:31;;;;;;;;;;;;;;;26.08;23.83;98775.47;5065967;28;20547;-80
2023/05/31 02:58:57;;;;;;;;;;;;;;;25.67;24.62;98767.38;5069861;28;19982;-79
2023/05/31 03:01:23;;;;;;;;;;;;;;;25.81;24.70;98777.59;5066543;28;19924;-79
2023/05/31 03:03:49;;;;;;;;;;;;;;;25.72;24.21;98771.75;5071101;28;20442;-79
2023/05/31 03:06:19;;;;;;;;;;;;;;;25.98;24.70;98777.25;5058776;28;19928;-80
2023/05/31 03:08:45;;;;;;;;;;;;;;;26.19;23.70;98773.28;5063610;28;19920;-80
2023/05/31 03:11:11;;;;;;;;;;;;;;;26.30;23.61;98773.06;5071836;28;20276;-80
2023/05/31 03:13:37;;;;;;;;;;;;;;;26.32;23.94;98776.25;5065617;28;19917;-80
2023/05/31 03:16:03;;;;;;;;;;;;;;;26.09;23.78;98777.06;5053832;28;19913;-80
2023/05/31 03:18:29;;;;;;;;;;;;;;;26.04;24.05;98777.56;5071140;28;20372;-80
2023/05/31 03:20:55;;;;;;;;;;;;;;;26.24;24.18;98786.03;5072209;28;19916;-80
2023/05/31 03:23:21;;;;;;;;;;;;;;;26.40;24.04;98781.28;5067758;28;19921;-80
2023/05/31 03:25:48;;;;;;;;;;;;;;;26.79;24.17;98785.34;5069865;28;19927;-80
2023/05/31 03:28:14;;;;;;;;;;;;;;;27.04;23.88;98786.38;5071611;28;19920;-80
2023/05/31 03:30:40;;;;;;;;;;;;;;;27.25;23.62;98788.72;5066922;28;19925;-80
2023/05/31 03:33:06;;;;;;;;;;;;;;;27.60;23.98;98784.25;5073177;28;19925;-80
2023/05/31 03:35:32;;;;;;;;;;;;;;;28.03;23.65;98778.31;5073038;28;20338;-80
2023/05/31 03:37:58;;;;;;;;;;;;;;;28.00;23.87;98788.50;5069603;28;19924;-80
2023/05/31 03:40:23;;;;;;;;;;;;;;;28.42;24.00;98778.06;5071356;28;19920;-80
2023/05/31 03:42:49;;;;;;;;;;;;;;;28.56;24.30;98774.81;5071542;28;19924;-80
2023/05/31 03:45:16;;;;;;;;;;;;;;;28.93;24.07;98773.31;5062071;28;19968;-81
2023/05/31 03:47:42;;;;;;;;;;;;;;;28.99;23.93;98784.84;5073471;28;19917;-81
2023/05/31 03:50:08;;;;;;;;;;;;;;;29.15;23.34;98790.44;5071862;28;20370;-81
2023/05/31 03:52:37;;;;;;;;;;;;;;;29.22;23.30;98793.06;5069539;28;20377;-81
2023/05/31 03:55:03;;;;;;;;;;;;;;;29.29;24.02;98807.75;5054002;28;20272;-81
2023/05/31 03:57:29;;;;;;;;;;;;;;;29.58;23.92;98801.97;5053597;28;19927;-81
2023/05/31 03:59:55;;;;;;;;;;;;;;;30.07;22.98;98805.97;5067100;28;19916;-81
2023/05/31 04:02:21;;;;;;;;;;;;;;;30.13;22.49;98811.06;5073019;28;19924;-81
2023/05/31 04:04:47;;;;;;;;;;;;;;;29.90;22.76;98806.59;5073491;28;19997;-81
2023/05/31 04:07:13;;;;;;;;;;;;;;;30.19;23.29;98795.88;5074091;28;19923;-81
2023/05/31 04:09:39;;;;;;;;;;;;;;;30.62;22.76;98793.06;5072901;28;19929;-81
2023/05/31 04:12:05;;;;;;;;;;;;;;;30.60;23.01;98792.75;5069877;28;20288;-81
2023/05/31 04:14:31;;;;;;;;;;;;;;;31.17;21.88;98793.44;5053346;28;19917;-81
2023/05/31 04:16:57;;;;;;;;;;;;;;;30.80;23.36;98798.09;5066612;28;19927;-81
2023/05/31 04:19:24;;;;;;;;;;;;;;;30.99;22.33;98796.19;5065611;28;19920;-81
2023/05/31 04:21:50;;;;;;;;;;;;;;;30.94;23.53;98788.28;5066643;28;19947;-82
2023/05/31 04:24:16;;;;;;;;;;;;;;;31.10;23.10;98799.38;5084268;28;20383;-82
2023/05/31 04:26:42;;;;;;;;;;;;;;;31.39;23.42;98797.78;5082795;28;19959;-81
2023/05/31 04:29:08;;;;;;;;;;;;;;;31.88;22.95;98797.03;5069749;28;19998;-82
2023/05/31 04:31:36;;;;;;;;;;;;;;;32.06;23.21;98794.22;5063243;28;19920;-82
2023/05/31 04:34:03;;;;;;;;;;;;;;;32.42;23.16;98796.28;5073723;28;19963;-82
2023/05/31 04:36:32;;;;;;;;;;;;;;;32.42;22.89;98793.44;5068719;28;19927;-82
2023/05/31 04:38:59;;;;;;;;;;;;;;;32.49;22.51;98793.13;5074350;28;19943;-82
2023/05/31 04:41:25;;;;;;;;;;;;;;;32.50;23.51;98798.38;5074887;28;19921;-80
2023/05/31 04:43:53;;;;;;;;;;;;;;;32.41;22.51;98798.34;5076933;28;19912;-82
2023/05/31 04:46:21;;;;;;;;;;;;;;;31.86;23.76;98791.78;5069793;28;19925;-81
2023/05/31 04:48:49;;;;;;;;;;;;;;;32.27;23.31;98798.19;5056840;28;19917;-82
2023/05/31 04:51:17;;;;;;;;;;;;;;;32.85;23.21;98793.09;5060259;28;20372;-81
2023/05/31 04:53:47;;;;;;;;;;;;;;;33.27;21.62;98790.31;5076330;28;19925;-81
2023/05/31 04:56:13;;;;;;;;;;;;;;;33.44;21.75;98812.22;5069897;28;20487;-80
2023/05/31 04:58:40;;;;;;;;;;;;;;;33.58;21.97;98804.28;5063267;28;19931;-80
2023/05/31 05:01:06;;;;;;;;;;;;;;;33.71;21.89;98802.78;5075859;28;20287;-80
2023/05/31 05:03:33;;;;;;;;;;;;;;;33.54;22.26;98803.69;5069401;28;19925;-80
2023/05/31 05:06:01;;;;;;;;;;;;;;;33.47;22.44;98792.63;5056351;28;19964;-80
2023/05/31 05:08:27;;;;;;;;;;;;;;;33.76;21.80;98801.34;5060803;28;19927;-82
2023/05/31 05:10:53;;;;;;;;;;;;;;;33.88;21.65;98803.19;5061780;28;19921;-80
2023/05/31 05:13:19;;;;;;;;;;;;;;;33.67;20.70;98799.34;5070267;28;20364;-81
2023/05/31 05:15:45;;;;;;;;;;;;;;;33.25;20.88;98807.88;5075943;28;19923;-80
2023/05/31 05:18:11;;;;;;;;;;;;;;;33.00;22.28;98808.22;5076545;28;19999;-80
2023/05/31 05:20:37;;;;;;;;;;;;;;;33.20;21.49;98805.69;5068133;28;19967;-80
2023/05/31 05:23:06;;;;;;;;;;;;;;;33.06;22.05;98809.22;5056124;28;19969;-80
2023/05/31 05:25:33;;;;;;;;;;;;;;;33.35;20.26;98814.34;5055810;28;20368;-80
2023/05/31 05:27:59;;;;;;;;;;;;;;;33.22;21.13;98811.69;5055934;28;19916;-80
2023/05/31 05:30:25;;;;;;;;;;;;;;;33.18;20.88;98810.28;5055875;28;19917;-80
2023/05/31 05:32:51;;;;;;;;;;;;;;;33.24;20.41;98820.53;5055737;28;19921;-80
2023/05/31 05:35:17;;;;;;;;;;;;;;;33.16;22.18;98819.31;5055782;28;20384;-80
2023/05/31 05:37:43;;;;;;;;;;;;;;;33.21;20.78;98812.19;5059556;28;19952;-80
2023/05/31 05:40:10;;;;;;;;;;;;;;;33.39;22.12;98812.91;5076279;28;20339;-80
2023/05/31 05:42:36;;;;;;;;;;;;;;;33.65;20.93;98815.34;5078341;28;19959;-80
2023/05/31 05:45:06;;;;;;;;;;;;;;;33.62;21.54;98814.25;5075533;28;19920;-80
2023/05/31 05:47:33;;;;;;;;;;;;;;;33.63;22.22;98810.09;5095514;28;20019;-80
2023/05/31 05:49:59;;;;;;;;;;;;;;;34.06;22.23;98803.88;5095158;28;20431;-80
2023/05/31 05:52:26;;;;;;;;;;;;;;;34.54;21.29;98815.25;5095788;28;19968;-80
2023/05/31 05:54:52;;;;;;;;;;;;;;;34.83;20.86;98817.34;5085073;28;19916;-80
2023/05/31 05:57:19;;;;;;;;;;;;;;;34.73;19.75;98820.28;5057311;28;20295;-80
2023/05/31 05:59:45;;;;;;;;;;;;;;;33.91;20.47;98820.06;5075573;28;20383;-80
2023/05/31 06:02:11;;;;;;;;;;;;;;;33.25;20.01;98805.03;5075544;28;19921;-80
2023/05/31 06:04:37;;;;;;;;;;;;;;;33.01;20.37;98809.84;5075152;28;19920;-80
2023/05/31 06:07:03;;;;;;;;;;;;;;;33.30;21.49;98821.44;5075225;28;19916;-80
2023/05/31 06:09:29;;;;;;;;;;;;;;;34.23;19.72;98812.78;5075246;28;20265;-80
2023/05/31 06:11:55;;;;;;;;;;;;;;;34.70;18.39;98817.66;5076386;28;19979;-80
2023/05/31 06:14:21;;;;;;;;;;;;;;;34.41;19.76;98815.47;5083639;28;19939;-80
2023/05/31 06:16:47;;;;;;;;;;;;;;;34.01;20.29;98821.59;5095340;28;19962;-80
2023/05/31 06:19:13;;;;;;;;;;;;;;;34.08;20.28;98815.56;5094994;28;19969;-80
2023/05/31 06:21:39;;;;;;;;;;;;;;;34.63;19.81;98823.72;5095057;28;19998;-79
2023/05/31 06:24:05;;;;;;;;;;;;;;;35.21;18.77;98825.84;5077106;28;20003;-80
2023/05/31 06:26:35;;;;;;;;;;;;;;;35.57;18.44;98816.09;5076803;28;19921;-80
2023/05/31 06:29:01;;;;;;;;;;;;;;;35.64;17.21;98804.25;5075971;28;19943;-80
2023/05/31 06:31:27;;;;;;;;;;;;;;;34.90;18.09;98812.03;5074766;28;20376;-80
2023/05/31 06:33:53;;;;;;;;;;;;;;;33.70;18.10;98809.75;5075152;28;19925;-80
2023/05/31 06:36:19;;;;;;;;;;;;;;;33.18;18.95;98813.13;5074725;28;19919;-80
2023/05/31 06:38:46;;;;;;;;;;;;;;;33.22;18.90;98814.53;5091878;28;19927;-81
2023/05/31 06:41:12;;;;;;;;;;;;;;;33.73;19.12;98811.63;5094966;28;19961;-80
2023/05/31 06:43:38;;;;;;;;;;;;;;;34.21;18.95;98811.69;5086375;28;20385;-80
2023/05/31 06:46:07;;;;;;;;;;;;;;;33.51;18.53;98813.16;5075002;28;20003;-80
2023/05/31 06:48:33;;;;;;;;;;;;;;;33.13;19.81;98810.94;5089627;28;20383;-80
2023/05/31 06:50:59;;;;;;;;;;;;;;;32.98;20.00;98816.47;5074389;28;19999;-81
2023/05/31 06:53:25;;;;;;;;;;;;;;;32.94;19.67;98817.91;5074103;28;19923;-80
2023/05/31 06:55:51;;;;;;;;;;;;;;;33.43;19.32;98815.56;5074329;28;19912;-80
2023/05/31 06:58:17;;;;;;;;;;;;;;;34.08;19.25;98820.47;5074309;28;20398;-80
2023/05/31 07:00:43;;;;;;;;;;;;;;;34.78;18.74;98815.16;5074291;28;20368;-80
2023/05/31 07:03:09;;;;;;;;;;;;;;;34.82;17.86;98812.94;5075472;28;19928;-80
2023/05/31 07:05:35;;;;;;;;;;;;;;;35.37;18.05;98802.50;5074270;28;20383;-80
2023/05/31 07:08:01;;;;;;;;;;;;;;;34.84;17.91;98811.16;5073882;28;20387;-80
2023/05/31 07:10:28;;;;;;;;;;;;;;;34.90;17.84;98812.03;5089390;28;19916;-80
2023/05/31 07:12:54;;;;;;;;;;;;;;;35.07;18.88;98815.22;5074048;28;19917;-80
2023/05/31 07:15:20;;;;;;;;;;;;;;;34.66;19.76;98817.81;5074009;28;19928;-80
2023/05/31 07:17:46;;;;;;;;;;;;;;;34.55;17.66;98813.97;5112732;28;19916;-80
2023/05/31 07:20:12;;;;;;;;;;;;;;;34.68;17.86;98809.56;5088220;28;20261;-80
2023/05/31 07:22:38;;;;;;;;;;;;;;;34.29;16.42;98815.72;5073633;28;19962;-81
2023/05/31 07:25:05;;;;;;;;;;;;;;;34.24;18.82;98808.63;5073447;28;19916;-81
2023/05/31 07:27:31;;;;;;;;;;;;;;;34.54;18.44;98809.56;5073963;28;19917;-80
2023/05/31 07:29:57;;;;;;;;;;;;;;;35.05;17.34;98810.03;5073635;28;19916;-80
2023/05/31 07:32:23;;;;;;;;;;;;;;;34.65;17.62;98806.91;5073906;28;19970;-81
2023/05/31 07:34:49;;;;;;;;;;;;;;;34.55;16.75;98809.06;5073564;28;19939;-81
2023/05/31 07:37:15;;;;;;;;;;;;;;;34.43;16.64;98795.03;5074373;28;20376;-81
2023/05/31 07:39:42;;;;;;;;;;;;;;;34.23;17.21;98797.72;5073419;28;19917;-81
2023/05/31 07:42:08;;;;;;;;;;;;;;;34.50;18.18;98798.28;5073676;28;19916;-80
2023/05/31 07:44:35;;;;;;;;;;;;;;;34.94;16.42;98797.59;5088338;28;19917;-81
2023/05/31 07:47:01;;;;;;;;;;;;;;;34.74;17.50;98795.41;5093598;28;19955;-81
2023/05/31 07:49:27;;;;;;;;;;;;;;;33.23;17.14;98789.72;5093478;28;19923;-81
2023/05/31 07:51:53;;;;;;;;;;;;;;;32.61;17.12;98797.88;5093596;28;19912;-80
2023/05/31 07:54:19;;;;;;;;;;;;;;;33.41;19.33;98786.78;5079500;28;19916;-80
2023/05/31 07:56:45;;;;;;;;;;;;;;;34.07;18.70;98791.19;5079652;28;19964;-80
2023/05/31 07:59:11;;;;;;;;;;;;;;;34.55;17.37;98789.09;5093652;28;19954;-80
2023/05/31 08:01:38;;;;;;;;;;;;;;;34.88;17.54;98785.28;5093494;28;19923;-81
2023/05/31 08:04:06;;;;;;;;;;;;;;;34.43;17.72;98792.97;5093704;28;19920;-81
2023/05/31 08:06:32;;;;;;;;;;;;;;;34.22;17.91;98790.44;5093456;28;20386;-80
2023/05/31 08:08:59;;;;;;;;;;;;;;;34.74;17.00;98784.00;5093482;28;19923;-81
2023/05/31 08:11:25;;;;;;;;;;;;;;;34.06;17.79;98783.91;5092435;28;19962;-81
2023/05/31 08:13:51;;;;;;;;;;;;;;;34.05;17.43;98781.56;5093389;28;19916;-81
2023/05/31 08:16:17;;;;;;;;;;;;;;;34.47;18.39;98784.22;5093498;28;20315;-80
2023/05/31 08:18:44;;;;;;;;;;;;;;;32.42;18.53;98780.00;5092949;28;19916;-80
2023/05/31 08:21:11;;;;;;;;;;;;;;;33.92;19.14;98781.78;5093492;28;19955;-81
2023/05/31 08:23:37;;;;;;;;;;;;;;;34.11;17.70;98771.06;5076883;28;19916;-81
2023/05/31 08:26:03;;;;;;;;;;;;;;;33.40;18.20;98777.44;5073045;28;20276;-81
2023/05/31 08:28:31;;;;;;;;;;;;;;;34.22;16.67;98771.28;5073659;28;19924;-80
2023/05/31 08:30:57;;;;;;;;;;;;;;;33.01;18.69;98775.72;5073042;28;19931;-80
2023/05/31 08:33:29;;;;;;;;;;;;;;;31.59;19.57;98780.38;5073199;28;19924;-81
2023/05/31 08:35:59;;;;;;;;;;;;;;;31.28;22.34;98777.56;5073011;28;19939;-81
2023/05/31 08:38:26;;;;;;;;;;;;;;;29.86;22.53;98792.56;5073070;28;20363;-81
2023/05/31 08:40:52;;;;;;;;;;;;;;;29.87;20.95;98788.47;5091481;28;19917;-81
2023/05/31 08:43:21;;;;;;;;;;;;;;;31.14;20.11;98786.63;5093208;28;20275;-80
2023/05/31 08:45:50;;;;;;;;;;;;;;;32.43;17.73;98778.75;5092176;28;19917;-82
2023/05/31 08:48:30;;;;;;;;;;;;;;;32.22;19.63;98776.06;5093140;28;19916;-81
2023/05/31 08:50:57;;;;;;;;;;;;;;;30.61;19.26;98776.53;5093088;28;19919;-81
2023/05/31 08:53:23;;;;;;;;;;;;;;;29.81;20.87;98781.00;5093074;28;19916;-81
2023/05/31 08:55:50;;;;;;;;;;;;;;;30.55;18.92;98773.50;5092955;28;19912;-80
2023/05/31 08:58:16;;;;;;;;;;;;;;;30.68;18.56;98782.72;5093047;28;19916;-81
2023/05/31 09:00:43;;;;;;;;;;;;;;;30.67;20.28;98778.31;5092746;28;19912;-82
2023/05/31 09:03:09;;;;;;;;;;;;;;;30.65;19.12;98780.81;5071374;28;19978;-81
2023/05/31 09:05:36;;;;;;;;;;;;;;;30.37;19.31;98781.88;5072837;28;20318;-81
2023/05/31 09:08:02;;;;;;;;;;;;;;;31.90;18.47;98783.13;5074940;28;19923;-81
2023/05/31 09:10:28;;;;;;;;;;;;;;;32.89;18.16;98778.69;5076339;28;19923;-81
2023/05/31 09:12:55;;;;;;;;;;;;;;;31.80;17.74;98778.69;5076387;28;19921;-80
2023/05/31 09:15:24;;;;;;;;;;;;;;;31.53;18.42;98773.72;5076302;28;19916;-81
2023/05/31 09:17:52;;;;;;;;;;;;;;;31.40;18.35;98781.53;5076207;28;19917;-81
2023/05/31 09:20:18;;;;;;;;;;;;;;;32.21;19.08;98775.28;5076241;28;19963;-81
2023/05/31 09:22:48;;;;;;;;;;;;;;;31.58;19.44;98780.84;5076045;28;19924;-81
2023/05/31 09:25:15;;;;;;;;;;;;;;;30.71;20.11;98778.19;5075901;28;19916;-81
2023/05/31 09:27:41;;;;;;;;;;;;;;;31.23;20.00;98768.84;5076727;28;19923;-81
2023/05/31 09:30:08;;;;;;;;;;;;;;;31.85;18.52;98773.19;5087324;28;19920;-80
2023/05/31 09:32:38;;;;;;;;;;;;;;;32.38;19.24;98778.59;5077114;28;20073;-81
2023/05/31 09:35:10;;;;;;;;;;;;;;;31.70;18.66;98772.19;5081986;28;19917;-81
2023/05/31 09:37:41;;;;;;;;;;;;;;;29.62;21.66;98773.53;5095781;28;20291;-81
2023/05/31 09:40:08;;;;;;;;;;;;;;;28.64;22.91;98776.22;5096159;28;19916;-81
2023/05/31 09:42:34;;;;;;;;;;;;;;;30.57;20.41;98776.66;5096087;28;19921;-80
2023/05/31 09:45:00;;;;;;;;;;;;;;;32.81;17.59;98766.09;5095857;28;20410;-80
2023/05/31 09:47:26;;;;;;;;;;;;;;;32.86;19.04;98762.59;5085146;28;19916;-81
2023/05/31 09:49:53;;;;;;;;;;;;;;;33.21;17.23;98760.94;5075688;28;19917;-80
2023/05/31 09:52:23;;;;;;;;;;;;;;;32.57;18.47;98769.63;5076480;28;20288;-81
2023/05/31 09:54:49;;;;;;;;;;;;;;;32.57;17.39;98763.94;5075613;28;20047;-81
2023/05/31 09:57:31;;;;;;;;;;;;;;;31.22;18.66;98758.78;5075523;28;19952;-81
2023/05/31 09:59:59;;;;;;;;;;;;;;;30.21;20.68;98767.06;5075472;28;19917;-81
2023/05/31 10:02:25;;;;;;;;;;;;;;;31.04;19.76;98756.63;5075565;28;19924;-80
2023/05/31 10:04:51;;;;;;;;;;;;;;;30.18;19.65;98768.00;5075489;28;19916;-80
2023/05/31 10:07:18;;;;;;;;;;;;;;;30.87;21.73;98768.66;5074104;28;20369;-81
2023/05/31 10:09:44;;;;;;;;;;;;;;;31.56;19.46;98758.59;5082975;28;20297;-80
2023/05/31 10:12:11;;;;;;;;;;;;;;;31.69;18.79;98749.97;5075317;28;19916;-81
2023/05/31 10:14:40;;;;;;;;;;;;;;;32.29;18.00;98747.34;5075216;28;19916;-81
2023/05/31 10:17:09;;;;;;;;;;;;;;;33.36;19.08;98733.34;5075206;28;19912;-81
2023/05/31 10:19:39;;;;;;;;;;;;;;;33.31;17.74;98743.31;5073804;28;19916;-80
2023/05/31 10:22:07;;;;;;;;;;;;;;;32.54;19.72;98727.13;5075144;28;19920;-81
2023/05/31 10:24:40;;;;;;;;;;;;;;;29.99;19.95;98735.91;5074988;28;19961;-81
2023/05/31 10:27:18;;;;;;;;;;;;;;;31.51;20.50;98735.72;5075535;28;19916;-81
2023/05/31 10:29:54;;;;;;;;;;;;;;;32.29;17.30;98739.59;5074793;28;19916;-80
2023/05/31 10:32:25;;;;;;;;;;;;;;;31.48;20.13;98733.81;5074931;28;19935;-81
2023/05/31 10:34:52;;;;;;;;;;;;;;;29.36;21.61;98742.47;5074881;28;19917;-81
2023/05/31 10:37:19;;;;;;;;;;;;;;;28.98;21.36;98744.50;5075039;28;19917;-80
2023/05/31 10:39:59;;;;;;;;;;;;;;;31.42;17.38;98720.25;5074892;28;19925;-80
2023/05/31 10:42:29;;;;;;;;;;;;;;;32.05;17.44;98728.09;5086804;28;19923;-80
2023/05/31 10:45:13;;;;;;;;;;;;;;;32.27;18.09;98716.56;5093851;28;19923;-80
2023/05/31 10:47:48;;;;;;;;;;;;;;;31.01;21.37;98722.75;5094745;28;20049;-80
2023/05/31 10:50:19;;;;;;;;;;;;;;;28.90;22.23;98725.34;5094722;28;19916;-81
2023/05/31 10:52:47;;;;;;;;;;;;;;;29.45;21.01;98724.81;5094813;28;20287;-80
2023/05/31 10:55:23;;;;;;;;;;;;;;;31.83;17.55;98721.75;5094707;28;20382;-80
2023/05/31 10:57:50;;;;;;;;;;;;;;;32.57;18.48;98712.75;5094334;28;20379;-80
2023/05/31 11:00:19;;;;;;;;;;;;;;;32.66;17.91;98704.19;5093477;28;20382;-80
2023/05/31 11:02:46;;;;;;;;;;;;;;;30.54;19.69;98711.59;5094377;28;19924;-81
2023/05/31 11:05:20;;;;;;;;;;;;;;;30.53;22.32;98715.69;5094711;28;20283;-80
2023/05/31 11:07:46;;;;;;;;;;;;;;;32.05;20.08;98710.25;5094284;28;20391;-80
2023/05/31 11:10:23;;;;;;;;;;;;;;;32.01;18.82;98716.09;5094234;28;19986;-81
2023/05/31 11:12:49;;;;;;;;;;;;;;;32.36;19.34;98702.34;5094321;28;19916;-80
2023/05/31 11:15:16;;;;;;;;;;;;;;;32.37;18.91;98695.38;5094505;28;19922;-81
2023/05/31 11:17:51;;;;;;;;;;;;;;;31.90;20.36;98697.91;5086401;28;19920;-80
2023/05/31 11:20:17;;;;;;;;;;;;;;;32.74;18.81;98696.13;5094074;28;19961;-80
2023/05/31 11:22:43;;;;;;;;;;;;;;;32.48;19.02;98686.34;5094143;28;19920;-81
2023/05/31 11:25:18;;;;;;;;;;;;;;;32.02;17.83;98697.00;5094488;28;20268;-80
2023/05/31 11:27:48;;;;;;;;;;;;;;;33.92;17.85;98686.94;5094021;28;19915;-80
2023/05/31 11:30:14;;;;;;;;;;;;;;;35.01;16.33;98683.78;5093882;28;19916;-80
2023/05/31 11:32:40;;;;;;;;;;;;;;;34.96;16.41;98681.63;5094185;28;19928;-81
2023/05/31 11:35:13;;;;;;;;;;;;;;;32.65;16.99;98688.38;5069499;28;19917;-81
2023/05/31 11:37:40;;;;;;;;;;;;;;;33.00;16.15;98687.97;5053631;28;19959;-80
2023/05/31 11:40:13;;;;;;;;;;;;;;;34.41;16.00;98675.75;5054008;28;20288;-81
2023/05/31 11:42:40;;;;;;;;;;;;;;;34.96;16.46;98675.16;5053379;28;20348;-80
2023/05/31 11:45:07;;;;;;;;;;;;;;;34.31;17.49;98671.41;5073615;28;19917;-81
2023/05/31 11:47:37;;;;;;;;;;;;;;;35.10;16.56;98665.78;5073910;28;19916;-80
2023/05/31 11:50:04;;;;;;;;;;;;;;;35.66;15.61;98667.38;5073528;28;19917;-81
2023/05/31 11:52:30;;;;;;;;;;;;;;;35.21;15.64;98666.75;5058682;28;19928;-81
2023/05/31 11:55:04;;;;;;;;;;;;;;;34.38;16.32;98670.25;5053426;28;19916;-81
2023/05/31 11:57:30;;;;;;;;;;;;;;;33.24;18.78;98671.72;5053252;28;19972;-81
2023/05/31 12:00:12;;;;;;;;;;;;;;;31.99;18.60;98673.16;5053588;28;19917;-81
2023/05/31 12:02:41;;;;;;;;;;;;;;;32.12;17.79;98666.50;5053263;28;20281;-80
2023/05/31 12:05:11;;;;;;;;;;;;;;;33.62;15.23;98673.88;5053398;28;19917;-80
2023/05/31 12:07:37;;;;;;;;;;;;;;;33.34;17.11;98665.50;5053222;28;19916;-80
2023/05/31 12:10:07;;;;;;;;;;;;;;;33.58;15.72;98667.59;5072830;28;19921;-81
2023/05/31 12:12:33;;;;;;;;;;;;;;;33.05;16.07;98662.50;5072999;28;19923;-80
2023/05/31 12:15:01;;;;;;;;;;;;;;;34.27;15.97;98652.91;5073413;28;20387;-81
2023/05/31 12:17:30;;;;;;;;;;;;;;;35.48;15.21;98653.34;5070513;28;19955;-81
2023/05/31 12:19:56;;;;;;;;;;;;;;;34.94;16.41;98649.19;5073344;28;19920;-81
2023/05/31 12:22:22;;;;;;;;;;;;;;;34.51;17.28;98654.41;5083588;28;19966;-81
2023/05/31 12:24:50;;;;;;;;;;;;;;;33.50;18.02;98654.94;5091838;28;19916;-81
2023/05/31 12:27:16;;;;;;;;;;;;;;;33.61;17.50;98650.31;5073510;28;19917;-81
2023/05/31 12:29:42;;;;;;;;;;;;;;;34.29;17.10;98645.44;5073192;28;20007;-81
2023/05/31 12:32:09;;;;;;;;;;;;;;;35.13;17.22;98645.59;5073085;28;20010;-81
2023/05/31 12:34:36;;;;;;;;;;;;;;;34.96;16.90;98643.75;5073282;28;19924;-81
2023/05/31 12:37:06;;;;;;;;;;;;;;;35.72;14.85;98639.66;5075359;28;19924;-81
2023/05/31 12:39:33;;;;;;;;;;;;;;;36.02;15.05;98639.00;5093150;28;19924;-81
2023/05/31 12:42:00;;;;;;;;;;;;;;;34.05;17.35;98647.59;5093264;28;19995;-81
2023/05/31 12:44:27;;;;;;;;;;;;;;;34.68;16.88;98632.66;5081680;28;19966;-81
2023/05/31 12:46:59;;;;;;;;;;;;;;;35.64;15.79;98633.59;5083471;28;19916;-81
2023/05/31 12:49:29;;;;;;;;;;;;;;;35.86;16.13;98633.06;5097556;28;19923;-82